createdAt,value
2019-05-16T00:00:29.503Z,46.40
2019-05-16T00:02:37.711Z,46.40
2019-05-16T00:04:43.853Z,46.50
2019-05-16T00:09:45.046Z,46.40
2019-05-16T00:20:20.494Z,46.70
2019-05-16T00:31:01.799Z,46.80
2019-05-16T00:34:01.194Z,47.00
2019-05-16T00:42:31.414Z,47.20
2019-05-16T00:44:47.810Z,47.40
2019-05-16T00:47:09.220Z,47.10
2019-05-16T00:50:28.709Z,47.10
2019-05-16T01:00:38.317Z,47.10
2019-05-16T01:06:23.235Z,48.10
2019-05-16T01:09:20.674Z,48.40
2019-05-16T01:11:52.661Z,49.60
2019-05-16T01:21:24.537Z,50.80
2019-05-16T02:03:39.593Z,56.50
2019-05-16T02:05:43.697Z,56.50
2019-05-16T02:07:49.150Z,56.30
2019-05-16T02:09:53.081Z,56.00
2019-05-16T02:11:58.937Z,55.70
2019-05-16T02:14:02.602Z,54.90
2019-05-16T02:16:08.328Z,54.40
2019-05-16T02:18:12.157Z,54.40
2019-05-16T02:20:18.039Z,54.20
2019-05-16T02:22:24.927Z,53.90
2019-05-16T02:29:37.501Z,54.10
2019-05-16T02:35:31.171Z,54.10
2019-05-16T02:37:37.448Z,54.90
2019-05-16T02:39:41.511Z,55.10
2019-05-16T02:41:46.203Z,55.20
2019-05-16T02:43:51.002Z,55.40
2019-05-16T02:45:55.213Z,55.60
2019-05-16T02:48:01.337Z,55.50
2019-05-16T02:51:26.396Z,55.20
2019-05-16T02:55:11.678Z,55.60
2019-05-16T03:00:03.175Z,55.80
2019-05-16T03:04:22.260Z,55.80
2019-05-16T03:06:26.845Z,55.20
2019-05-16T03:08:32.159Z,55.40
2019-05-16T03:10:36.474Z,55.20
2019-05-16T03:12:41.315Z,55.30
2019-05-16T03:14:46.952Z,55.30
2019-05-16T03:16:51.980Z,55.50
2019-05-16T03:18:56.174Z,55.70
2019-05-16T03:21:02.025Z,55.50
2019-05-16T03:23:05.988Z,55.80
2019-05-16T03:25:11.985Z,55.70
2019-05-16T03:27:16.311Z,56.20
2019-05-16T03:29:21.822Z,56.20
2019-05-16T03:31:26.093Z,56.50
2019-05-16T03:33:35.174Z,56.90
2019-05-16T03:35:35.907Z,56.80
2019-05-16T03:37:51.439Z,56.80
2019-05-16T03:39:51.268Z,57.10
2019-05-16T03:41:53.846Z,57.10
2019-05-16T03:44:02.959Z,57.20
2019-05-16T03:46:11.509Z,57.50
2019-05-16T03:48:13.615Z,57.60
2019-05-16T03:50:21.897Z,57.80
2019-05-16T03:52:26.187Z,57.90
2019-05-16T03:54:31.419Z,58.10
2019-05-16T03:56:35.619Z,58.20
2019-05-16T03:58:41.483Z,58.50
2019-05-16T04:00:54.274Z,58.60
2019-05-16T04:03:01.322Z,59.00
2019-05-16T04:05:04.221Z,59.40
2019-05-16T04:07:11.017Z,59.40
2019-05-16T04:09:13.803Z,59.40
2019-05-16T04:11:22.678Z,59.50
2019-05-16T04:13:23.452Z,60.00
2019-05-16T04:15:30.926Z,60.20
2019-05-16T04:17:32.883Z,60.40
2019-05-16T04:19:36.668Z,60.40
2019-05-16T04:21:42.122Z,60.90
2019-05-16T04:23:45.995Z,61.30
2019-05-16T04:25:54.735Z,61.60
2019-05-16T04:28:31.350Z,62.10
2019-05-16T04:31:02.242Z,62.90
2019-05-16T04:33:37.276Z,62.90
2019-05-16T04:36:51.491Z,63.60
2019-05-16T04:38:45.151Z,64.10
2019-05-16T04:41:15.114Z,64.80
2019-05-16T04:43:45.502Z,65.00
2019-05-16T04:46:50.726Z,65.80
2019-05-16T04:50:03.377Z,65.70
2019-05-16T04:55:42.062Z,65.40
2019-05-16T04:58:15.404Z,65.50
2019-05-16T05:01:30.785Z,66.10
2019-05-16T05:04:42.862Z,66.10
2019-05-16T05:08:01.528Z,66.70
2019-05-16T05:10:37.177Z,67.20
2019-05-16T05:13:11.286Z,68.00
2019-05-16T05:16:11.966Z,69.20
2019-05-16T05:19:01.285Z,69.60
2019-05-16T05:21:01.273Z,69.30
2019-05-16T05:23:05.178Z,69.60
2019-05-16T05:25:11.005Z,69.50
2019-05-16T05:27:15.181Z,68.90
2019-05-16T05:29:20.051Z,68.70
2019-05-16T05:31:25.721Z,67.80
2019-05-16T05:33:30.520Z,66.80
2019-05-16T05:35:34.997Z,66.70
2019-05-16T05:37:54.272Z,66.50
2019-05-16T05:40:13.811Z,65.90
2019-05-16T05:42:43.629Z,65.80
2019-05-16T05:45:03.227Z,64.80
2019-05-16T05:47:15.122Z,65.20
2019-05-16T05:50:07.579Z,66.10
2019-05-16T05:52:46.280Z,65.40
2019-05-16T05:54:50.482Z,66.00
2019-05-16T05:57:03.051Z,65.80
2019-05-16T05:59:43.920Z,66.60
2019-05-16T06:02:15.632Z,66.70
2019-05-16T06:04:39.526Z,67.20
2019-05-16T06:06:45.340Z,67.40
2019-05-16T06:09:24.820Z,68.90
2019-05-16T06:11:25.242Z,69.50
2019-05-16T06:14:00.528Z,69.00
2019-05-16T06:18:56.729Z,69.20
2019-05-16T06:21:00.842Z,70.50
2019-05-16T06:23:04.688Z,71.60
2019-05-16T06:25:13.428Z,71.70
2019-05-16T06:27:14.381Z,70.00
2019-05-16T06:29:20.391Z,71.10
2019-05-16T06:31:23.881Z,71.20
2019-05-16T06:33:30.335Z,70.40
2019-05-16T06:35:33.342Z,69.90
2019-05-16T06:40:24.212Z,70.30
2019-05-16T06:42:36.533Z,69.50
2019-05-16T06:45:10.634Z,70.00
2019-05-16T06:48:01.037Z,70.00
2019-05-16T06:50:16.262Z,69.60
2019-05-16T06:52:20.336Z,68.60
2019-05-16T06:54:24.262Z,67.50
2019-05-16T06:56:30.543Z,67.50
2019-05-16T06:58:44.764Z,67.40
2019-05-16T07:00:40.605Z,67.60
2019-05-16T07:02:44.796Z,66.80
2019-05-16T07:04:50.645Z,65.90
2019-05-16T07:07:02.851Z,66.60
2019-05-16T07:09:01.502Z,67.40
2019-05-16T07:11:05.535Z,67.70
2019-05-16T07:13:10.387Z,66.50
2019-05-16T07:15:14.801Z,66.30
2019-05-16T07:17:20.231Z,67.30
2019-05-16T07:19:24.444Z,68.30
2019-05-16T07:21:31.209Z,78.90
2019-05-16T07:23:34.910Z,66.30
2019-05-16T07:25:43.448Z,91.20
2019-05-16T07:27:56.450Z,62.40
2019-05-16T07:30:10.602Z,63.40
2019-05-16T07:34:27.458Z,62.80
2019-05-16T07:35:21.144Z,63.40
2019-05-16T07:38:20.178Z,61.50
2019-05-16T07:40:59.750Z,63.00
2019-05-16T07:43:24.976Z,62.80
2019-05-16T07:45:37.907Z,62.90
2019-05-16T07:48:31.687Z,61.60
2019-05-16T07:50:36.525Z,62.00
2019-05-16T07:54:50.895Z,58.50
2019-05-16T07:56:59.841Z,59.20
2019-05-16T07:59:00.867Z,59.10
2019-05-16T08:01:09.011Z,59.40
2019-05-16T08:03:10.806Z,59.50
2019-05-16T08:05:14.818Z,58.80
2019-05-16T08:07:20.110Z,59.30
2019-05-16T08:09:24.229Z,59.30
2019-05-16T08:11:30.416Z,58.30
2019-05-16T08:13:33.703Z,57.40
2019-05-16T08:15:37.568Z,57.70
2019-05-16T08:17:44.699Z,58.50
2019-05-16T08:19:47.201Z,55.60
2019-05-16T08:21:51.273Z,56.90
2019-05-16T08:23:55.111Z,57.40
2019-05-16T08:26:01.232Z,56.20
2019-05-16T08:28:11.476Z,56.20
2019-05-16T08:30:13.783Z,56.30
2019-05-16T08:32:22.656Z,56.30
2019-05-16T08:34:23.807Z,56.60
2019-05-16T08:36:27.755Z,57.20
2019-05-16T08:38:31.540Z,56.30
2019-05-16T08:41:01.250Z,56.60
2019-05-16T08:42:45.456Z,57.00
2019-05-16T08:44:51.732Z,56.60
2019-05-16T08:46:58.101Z,56.80
2019-05-16T08:49:01.262Z,56.90
2019-05-16T08:51:05.627Z,55.80
2019-05-16T08:53:13.055Z,56.10
2019-05-16T08:55:17.735Z,55.00
2019-05-16T08:57:28.324Z,56.10
2019-05-16T08:59:27.629Z,55.30
2019-05-16T09:01:34.943Z,54.80
2019-05-16T09:03:40.727Z,55.00
2019-05-16T09:05:43.181Z,55.20
2019-05-16T09:07:47.056Z,55.20
2019-05-16T09:09:51.891Z,54.20
2019-05-16T09:12:03.875Z,54.20
2019-05-16T09:14:01.868Z,53.40
2019-05-16T09:16:07.809Z,53.90
2019-05-16T09:18:11.748Z,54.60
2019-05-16T09:20:17.377Z,55.10
2019-05-16T09:22:21.227Z,54.00
2019-05-16T09:24:27.148Z,54.80
2019-05-16T09:26:30.810Z,55.10
2019-05-16T09:28:34.587Z,54.20
2019-05-16T09:30:39.635Z,55.00
2019-05-16T09:32:43.607Z,54.90
2019-05-16T09:34:48.448Z,53.90
2019-05-16T09:36:52.305Z,53.10
2019-05-16T09:38:58.010Z,52.40
2019-05-16T09:41:07.672Z,52.30
2019-05-16T09:43:10.504Z,52.90
2019-05-16T09:45:17.033Z,54.10
2019-05-16T09:47:21.773Z,55.00
2019-05-16T09:49:29.304Z,55.00
2019-05-16T09:51:32.771Z,54.30
2019-05-16T09:53:37.041Z,54.40
2019-05-16T09:55:43.883Z,53.30
2019-05-16T09:57:47.910Z,53.90
2019-05-16T09:59:51.703Z,54.50
2019-05-16T10:01:58.763Z,54.30
2019-05-16T10:04:02.887Z,52.40
2019-05-16T10:06:08.017Z,51.70
2019-05-16T10:08:12.238Z,52.40
2019-05-16T10:10:17.299Z,53.60
2019-05-16T10:12:21.211Z,53.90
2019-05-16T10:14:26.854Z,53.50
2019-05-16T10:16:30.875Z,53.60
2019-05-16T10:18:37.010Z,53.10
2019-05-16T10:20:41.085Z,53.80
2019-05-16T10:22:46.856Z,54.10
2019-05-16T10:24:51.014Z,54.90
2019-05-16T10:26:57.026Z,54.20
2019-05-16T10:29:00.747Z,55.00
2019-05-16T10:31:06.928Z,54.20
2019-05-16T10:33:10.840Z,53.60
2019-05-16T10:35:15.413Z,54.50
2019-05-16T10:37:19.910Z,55.90
2019-05-16T10:39:26.820Z,56.00
2019-05-16T10:41:57.179Z,56.80
2019-05-16T10:44:02.998Z,58.30
2019-05-16T10:46:17.968Z,58.60
2019-05-16T10:48:27.333Z,58.80
2019-05-16T10:50:36.992Z,58.80
2019-05-16T10:52:47.543Z,59.30
2019-05-16T10:55:02.237Z,59.80
2019-05-16T10:57:12.531Z,59.20
2019-05-16T11:01:31.388Z,59.20
2019-05-16T11:03:48.872Z,59.80
2019-05-16T11:06:05.306Z,59.80
2019-05-16T11:08:16.974Z,59.40
2019-05-16T11:10:29.714Z,59.70
2019-05-16T11:12:50.254Z,58.90
2019-05-16T11:14:55.440Z,59.80
2019-05-16T11:17:11.840Z,60.80
2019-05-16T11:19:24.270Z,58.30
2019-05-16T11:21:27.789Z,59.00
2019-05-16T11:23:32.143Z,59.30
2019-05-16T11:25:36.708Z,59.70
2019-05-16T11:27:41.251Z,60.20
2019-05-16T11:29:47.152Z,59.50
2019-05-16T11:31:50.631Z,59.30
2019-05-16T11:33:57.306Z,59.10
2019-05-16T11:36:00.100Z,59.50
2019-05-16T11:38:06.858Z,59.10
2019-05-16T11:40:10.535Z,59.20
2019-05-16T11:42:17.331Z,58.80
2019-05-16T11:44:20.277Z,58.70
2019-05-16T11:46:24.055Z,58.70
2019-05-16T11:48:29.499Z,58.00
2019-05-16T11:50:33.727Z,54.60
2019-05-16T11:52:40.729Z,55.20
2019-05-16T11:54:43.612Z,54.70
2019-05-16T11:56:47.421Z,54.60
2019-05-16T11:58:51.210Z,55.30
2019-05-16T12:00:57.394Z,53.50
2019-05-16T12:03:01.172Z,52.40
2019-05-16T12:05:05.705Z,53.50
2019-05-16T12:07:09.495Z,52.30
2019-05-16T12:09:13.427Z,52.90
2019-05-16T12:11:17.849Z,52.50
2019-05-16T12:13:29.714Z,52.20
2019-05-16T12:15:28.141Z,52.80
2019-05-16T12:17:31.943Z,53.20
2019-05-16T12:19:42.808Z,54.20
2019-05-16T12:21:41.429Z,54.90
2019-05-16T12:23:47.311Z,55.30
2019-05-16T12:25:51.000Z,55.30
2019-05-16T12:27:56.927Z,56.10
2019-05-16T12:30:00.601Z,56.40
2019-05-16T12:32:07.205Z,56.40
2019-05-16T12:34:10.245Z,56.90
2019-05-16T12:36:14.288Z,57.90
2019-05-16T12:38:18.391Z,58.70
2019-05-16T12:40:22.266Z,59.80
2019-05-16T12:42:27.091Z,61.80
2019-05-16T12:44:30.987Z,62.30
2019-05-16T12:46:36.507Z,62.80
2019-05-16T12:48:40.843Z,63.50
2019-05-16T12:50:47.687Z,64.00
2019-05-16T12:52:50.763Z,63.90
2019-05-16T12:54:56.982Z,64.60
2019-05-16T12:57:00.249Z,64.40
2019-05-16T12:59:04.140Z,64.10
2019-05-16T13:01:08.089Z,63.50
2019-05-16T13:03:11.944Z,63.40
2019-05-16T13:05:18.732Z,64.10
2019-05-16T13:07:21.985Z,63.70
2019-05-16T13:09:26.500Z,63.60
2019-05-16T13:11:31.082Z,63.40
2019-05-16T13:13:37.546Z,62.20
2019-05-16T13:15:42.406Z,61.80
2019-05-16T13:17:47.422Z,61.70
2019-05-16T13:19:51.481Z,62.10
2019-05-16T13:21:57.619Z,62.60
2019-05-16T13:24:00.776Z,63.00
2019-05-16T13:26:07.293Z,63.00
2019-05-16T13:28:12.524Z,62.90
2019-05-16T13:30:17.478Z,62.80
2019-05-16T13:32:21.755Z,62.60
2019-05-16T13:34:28.155Z,62.80
2019-05-16T13:36:31.275Z,63.20
2019-05-16T13:38:35.080Z,63.40
2019-05-16T13:40:38.972Z,63.30
2019-05-16T13:42:47.732Z,63.20
2019-05-16T13:44:57.467Z,62.90
2019-05-16T13:47:04.128Z,61.60
2019-05-16T13:49:08.290Z,61.10
2019-05-16T13:51:30.908Z,60.20
2019-05-16T13:53:57.898Z,60.70
2019-05-16T13:56:21.447Z,60.50
2019-05-16T13:58:28.676Z,59.80
2019-05-16T14:00:32.836Z,59.80
2019-05-16T14:02:37.792Z,59.70
2019-05-16T14:05:10.238Z,60.60
2019-05-16T14:07:24.259Z,60.90
2019-05-16T14:09:28.658Z,61.40
2019-05-16T14:12:03.596Z,62.40
2019-05-16T14:14:32.116Z,63.30
2019-05-16T14:16:31.877Z,64.20
2019-05-16T14:19:01.257Z,64.30
2019-05-16T14:21:06.930Z,63.40
2019-05-16T14:23:17.564Z,63.70
2019-05-16T14:25:30.415Z,64.70
2019-05-16T14:27:34.421Z,65.00
2019-05-16T14:29:38.281Z,66.20
2019-05-16T14:31:42.535Z,67.00
2019-05-16T14:33:47.386Z,67.20
2019-05-16T14:35:51.727Z,67.50
2019-05-16T14:37:58.166Z,68.00
2019-05-16T14:40:02.179Z,68.30
2019-05-16T14:45:10.970Z,67.30
2019-05-16T14:47:08.502Z,69.00
2019-05-16T14:49:24.534Z,70.30
2019-05-16T14:51:31.824Z,71.70
2019-05-16T14:53:37.956Z,73.00
2019-05-16T14:56:17.173Z,74.20
2019-05-16T14:58:21.187Z,75.70
2019-05-16T15:00:31.480Z,77.80
2019-05-16T15:02:52.030Z,80.30
2019-05-16T15:04:52.005Z,82.50
2019-05-16T15:07:07.398Z,86.00
2019-05-16T15:09:12.720Z,88.20
2019-05-16T15:12:22.034Z,89.70
2019-05-16T15:14:28.088Z,91.10
2019-05-16T15:16:47.433Z,92.70
2019-05-16T15:18:40.365Z,93.90
2019-05-16T15:20:49.703Z,95.20
2019-05-16T15:23:07.696Z,95.60
2019-05-16T15:25:13.928Z,96.70
2019-05-16T15:27:31.338Z,98.00
2019-05-16T15:30:06.946Z,98.80
2019-05-16T15:32:33.694Z,99.90
2019-05-16T15:35:04.147Z,99.90
2019-05-16T15:37:07.826Z,99.90
2019-05-16T15:39:12.307Z,99.90
2019-05-16T15:41:27.856Z,99.90
2019-05-16T15:43:27.652Z,99.90
2019-05-16T15:45:42.713Z,99.90
2019-05-16T15:47:42.053Z,99.90
2019-05-16T15:50:07.999Z,99.90
2019-05-16T15:52:27.463Z,99.90
2019-05-16T15:54:33.908Z,99.90
2019-05-16T15:56:51.867Z,99.90
2019-05-16T15:59:01.764Z,99.90
2019-05-16T16:01:07.716Z,99.90
2019-05-16T16:03:14.235Z,99.90
2019-05-16T16:05:26.585Z,99.90
2019-05-16T16:07:30.303Z,99.90
2019-05-16T16:09:34.103Z,99.90
2019-05-16T16:11:38.061Z,99.90
2019-05-16T16:13:41.855Z,99.90
2019-05-16T16:15:51.515Z,99.90
2019-05-16T16:17:51.340Z,99.90
2019-05-16T16:19:57.781Z,99.90
2019-05-16T16:22:07.310Z,99.90
2019-05-16T16:24:12.746Z,99.90
2019-05-16T16:26:23.586Z,99.90
2019-05-16T16:28:27.684Z,99.90
2019-05-16T16:30:31.815Z,99.90
2019-05-16T16:32:38.001Z,99.90
2019-05-16T16:34:42.189Z,99.90
2019-05-16T16:36:47.588Z,99.90
2019-05-16T16:38:51.623Z,99.90
2019-05-16T16:40:57.376Z,99.90
2019-05-16T16:43:11.956Z,99.90
2019-05-16T16:45:31.814Z,99.90
2019-05-16T16:47:51.000Z,99.90
2019-05-16T16:50:07.443Z,99.90
2019-05-16T16:52:27.295Z,99.90
2019-05-16T16:54:44.422Z,99.90
2019-05-16T16:56:47.339Z,99.90
2019-05-16T16:58:51.536Z,99.90
2019-05-16T17:01:01.337Z,99.90
2019-05-16T17:03:09.282Z,99.90
2019-05-16T17:05:12.350Z,99.90
2019-05-16T17:07:16.715Z,99.90
2019-05-16T17:09:20.894Z,99.90
2019-05-16T17:11:26.474Z,99.90
2019-05-16T17:13:30.536Z,99.90
2019-05-16T17:15:36.488Z,99.90
2019-05-16T17:17:39.959Z,99.90
2019-05-16T17:19:43.733Z,99.90
2019-05-16T17:22:01.910Z,99.90
2019-05-16T17:23:53.222Z,99.90
2019-05-16T17:25:57.129Z,99.90
2019-05-16T17:28:00.908Z,99.90
2019-05-16T17:30:07.463Z,99.90
2019-05-16T17:32:11.382Z,99.90
2019-05-16T17:34:16.303Z,99.90
2019-05-16T17:36:23.095Z,99.90
2019-05-16T17:38:27.974Z,99.90
2019-05-16T17:40:31.821Z,99.90
2019-05-16T17:42:37.357Z,99.90
2019-05-16T17:44:41.365Z,99.90
2019-05-16T17:46:46.768Z,99.90
2019-05-16T17:48:50.703Z,99.90
2019-05-16T17:50:56.894Z,99.90
2019-05-16T17:53:00.538Z,99.90
2019-05-16T17:55:07.089Z,99.90
2019-05-16T17:57:10.293Z,99.90
2019-05-16T17:59:16.844Z,99.90
2019-05-16T18:04:31.205Z,99.90
2019-05-16T18:06:39.869Z,99.90
2019-05-16T18:08:47.001Z,99.90
2019-05-16T18:10:51.017Z,99.90
2019-05-16T18:12:56.839Z,99.90
2019-05-16T18:15:00.888Z,99.90
2019-05-16T18:17:07.271Z,99.90
2019-05-16T18:19:14.038Z,99.90
2019-05-16T18:21:21.379Z,99.90
2019-05-16T18:23:27.432Z,99.90
2019-05-16T18:25:33.446Z,99.90
2019-05-16T18:27:37.732Z,99.90
2019-05-16T18:29:47.064Z,99.90
2019-05-16T18:31:52.269Z,99.90
2019-05-16T18:36:53.497Z,99.90
2019-05-16T18:39:10.375Z,99.90
2019-05-16T18:41:32.196Z,99.90
2019-05-16T18:43:33.117Z,99.90
2019-05-16T18:46:03.877Z,99.90
2019-05-16T18:48:18.860Z,99.90
2019-05-16T18:50:20.546Z,99.90
2019-05-16T18:52:24.578Z,99.90
2019-05-16T18:54:43.583Z,99.90
2019-05-16T18:56:50.194Z,99.90
2019-05-16T18:58:52.233Z,99.90
2019-05-16T19:03:42.085Z,99.90
2019-05-16T19:05:47.335Z,99.90
2019-05-16T19:07:56.259Z,99.90
2019-05-16T19:22:06.515Z,99.90
2019-05-16T19:24:42.823Z,99.90
2019-05-16T19:27:08.546Z,99.90
2019-05-16T19:29:36.790Z,99.90
2019-05-16T19:31:40.162Z,99.90
2019-05-16T19:34:07.168Z,99.90
2019-05-16T19:36:11.066Z,99.90
2019-05-16T19:38:22.816Z,99.90
2019-05-16T19:43:32.485Z,99.90
2019-05-16T19:45:57.084Z,99.90
2019-05-16T19:48:26.923Z,99.90
2019-05-16T19:51:10.346Z,99.90
2019-05-16T20:04:07.416Z,99.90
2019-05-16T20:07:26.331Z,99.90
2019-05-16T20:09:19.465Z,99.90
2019-05-16T20:14:41.729Z,99.90
2019-05-16T20:16:39.556Z,99.90
2019-05-16T20:19:01.368Z,99.90
2019-05-16T20:21:11.600Z,99.90
2019-05-16T20:23:27.664Z,99.90
2019-05-16T20:25:53.150Z,99.90
2019-05-16T20:27:55.895Z,99.90
2019-05-16T20:30:31.525Z,99.90
2019-05-16T20:36:03.972Z,99.90
2019-05-16T20:41:27.884Z,99.90
2019-05-16T20:54:08.066Z,99.90
2019-05-16T21:08:26.570Z,99.90
2019-05-16T21:11:08.582Z,99.90
2019-05-16T21:13:13.112Z,99.90
2019-05-16T21:15:41.345Z,99.90
2019-05-16T21:18:03.839Z,99.90
2019-05-16T21:20:54.474Z,99.90
2019-05-16T21:23:19.405Z,99.90
2019-05-16T21:25:29.331Z,99.90
2019-05-16T21:27:37.854Z,99.90
2019-05-16T21:32:47.271Z,99.90
2019-05-16T21:41:22.527Z,99.90
2019-05-16T21:44:08.344Z,99.90
2019-05-16T21:52:56.441Z,99.90
2019-05-16T21:54:56.340Z,99.90
2019-05-16T21:57:06.676Z,99.90
2019-05-16T21:59:06.978Z,99.90
2019-05-16T22:01:15.470Z,99.90
2019-05-16T22:03:59.337Z,99.90
2019-05-16T22:05:57.480Z,99.90
2019-05-16T22:07:56.885Z,99.90
2019-05-16T22:10:01.073Z,99.90
2019-05-16T22:12:06.682Z,99.90
2019-05-16T22:14:11.384Z,99.90
2019-05-16T22:16:17.549Z,99.90
2019-05-16T22:18:23.447Z,99.90
2019-05-16T22:20:30.838Z,99.90
2019-05-16T22:22:38.162Z,99.90
2019-05-16T22:25:03.857Z,99.90
2019-05-16T22:26:47.093Z,99.90
2019-05-16T22:28:51.176Z,99.90
2019-05-16T22:30:58.137Z,99.90
2019-05-16T22:33:01.325Z,99.90
2019-05-16T22:35:16.827Z,99.90
2019-05-16T22:37:28.007Z,99.90
2019-05-16T22:39:31.959Z,99.90
2019-05-16T22:41:37.148Z,99.90
2019-05-16T22:43:41.393Z,99.90
2019-05-16T22:46:06.376Z,99.90
2019-05-16T22:58:43.399Z,99.90
2019-05-16T23:00:50.627Z,99.90
2019-05-16T23:02:57.772Z,99.90
2019-05-16T23:05:18.954Z,99.90
2019-05-16T23:07:16.494Z,99.90
2019-05-16T23:09:36.507Z,99.90
2019-05-16T23:11:40.168Z,99.90
2019-05-16T23:13:47.082Z,99.90
2019-05-16T23:15:54.176Z,99.90
2019-05-16T23:17:58.405Z,99.90
2019-05-16T23:20:02.620Z,99.90
2019-05-16T23:22:08.232Z,99.90
2019-05-16T23:24:17.247Z,99.90
2019-05-16T23:26:26.827Z,99.90
2019-05-16T23:28:49.650Z,99.90
2019-05-16T23:31:13.126Z,99.90
2019-05-16T23:33:16.238Z,99.90
2019-05-16T23:35:20.254Z,99.90
2019-05-16T23:37:30.306Z,99.90
2019-05-16T23:39:33.313Z,99.90
2019-05-16T23:41:37.694Z,99.90
2019-05-16T23:43:49.480Z,99.90
2019-05-16T23:46:04.033Z,99.90
2019-05-16T23:48:16.441Z,99.90
2019-05-16T23:50:20.943Z,99.90
2019-05-16T23:52:36.786Z,99.90
2019-05-16T23:54:51.401Z,99.90
2019-05-16T23:56:50.228Z,99.90
2019-05-16T23:58:54.269Z,99.90
